Time;durP1;ratioP1;P1;durP2;ratioP2;P2;SDS_P1;SDS_P2;PMS_P1;PMS_P2;Temp;Humidity;BMP_temperature;BMP_pressure;BME280_temperature;BME280_humidity;BME280_pressure;Samples;Min_cycle;Max_cycle;Signal;HPM_P1;HPM_P2
2022/04/05 00:01:00;;;;;;;7.22;1.80;;;7.80;99.90;;;;;;4976298;28;20594;-77
2022/04/05 00:03:27;;;;;;;8.30;2.30;;;7.90;99.90;;;;;;4988582;28;20044;-78
2022/04/05 00:05:53;;;;;;;9.90;2.13;;;7.90;99.90;;;;;;4989396;28;20753;-77
2022/04/05 00:08:18;;;;;;;9.25;2.10;;;7.90;99.90;;;;;;4959117;28;20796;-77
2022/04/05 00:10:44;;;;;;;7.20;1.75;;;7.90;99.90;;;;;;4977888;28;20148;-77
2022/04/05 00:13:10;;;;;;;6.75;1.80;;;7.80;99.90;;;;;;4993492;28;20041;-77
2022/04/05 00:15:36;;;;;;;5.90;1.80;;;7.80;99.90;;;;;;4995055;28;20080;-77
2022/04/05 00:18:03;;;;;;;5.85;1.88;;;7.80;99.90;;;;;;4987377;28;20037;-77
2022/04/05 00:20:29;;;;;;;6.32;1.70;;;7.80;99.90;;;;;;4990919;28;20056;-77
2022/04/05 00:22:56;;;;;;;4.97;1.63;;;7.80;99.90;;;;;;4991108;28;20054;-77
2022/04/05 00:25:22;;;;;;;6.05;1.70;;;7.80;99.90;;;;;;4975061;28;20795;-77
2022/04/05 00:27:48;;;;;;;6.80;1.80;;;7.80;99.90;;;;;;4990258;28;20057;-78
2022/04/05 00:30:15;;;;;;;5.00;1.50;;;7.80;99.90;;;;;;4976557;28;20049;-78
2022/04/05 00:32:41;;;;;;;4.93;1.45;;;7.70;99.90;;;;;;4973949;28;20117;-78
2022/04/05 00:35:08;;;;;;;5.88;1.65;;;7.70;99.90;;;;;;4972657;28;20099;-78
2022/04/05 00:37:34;;;;;;;4.32;1.40;;;7.70;99.90;;;;;;4986160;28;20075;-78
2022/04/05 00:40:01;;;;;;;5.82;1.77;;;7.70;99.90;;;;;;4971754;28;20120;-78
2022/04/05 00:42:36;;;;;;;7.95;1.95;;;7.70;99.90;;;;;;4992519;28;20140;-77
2022/04/05 00:45:07;;;;;;;4.65;1.52;;;7.70;99.90;;;;;;4976209;28;20060;-77
2022/04/05 00:47:35;;;;;;;6.07;1.50;;;7.70;99.90;;;;;;4993902;28;20072;-78
2022/04/05 00:50:02;;;;;;;5.35;1.55;;;7.60;99.90;;;;;;4991855;28;20084;-78
2022/04/05 00:52:29;;;;;;;5.38;1.40;;;7.60;99.90;;;;;;4973930;28;20536;-77
2022/04/05 00:54:56;;;;;;;4.28;1.63;;;7.60;99.90;;;;;;4992760;28;20688;-77
2022/04/05 00:57:23;;;;;;;6.18;1.60;;;7.60;99.90;;;;;;4980449;28;20057;-78
2022/04/05 00:59:54;;;;;;;5.40;1.60;;;7.60;99.90;;;;;;4993386;28;20539;-78
2022/04/05 01:02:21;;;;;;;5.85;1.75;;;7.60;99.90;;;;;;4988710;28;20078;-78
2022/04/05 01:04:47;;;;;;;4.85;1.75;;;7.60;99.90;;;;;;4994111;28;20053;-77
2022/04/05 01:07:15;;;;;;;5.75;1.75;;;7.50;99.90;;;;;;4994758;28;20570;-78
2022/04/05 01:09:41;;;;;;;5.45;1.52;;;7.60;99.90;;;;;;4994223;28;20041;-78
2022/04/05 01:12:09;;;;;;;4.57;1.58;;;7.50;99.90;;;;;;4973907;28;20535;-77
2022/04/05 01:14:36;;;;;;;6.47;1.80;;;7.60;99.90;;;;;;4993798;28;21371;-78
2022/04/05 01:17:03;;;;;;;5.72;1.75;;;7.50;99.90;;;;;;4975144;28;20403;-77
2022/04/05 01:19:31;;;;;;;6.85;2.03;;;7.50;99.90;;;;;;4981320;28;20057;-77
2022/04/05 01:21:58;;;;;;;6.07;2.10;;;7.50;99.90;;;;;;4985093;28;20049;-77
2022/04/05 01:24:24;;;;;;;7.13;2.65;;;7.50;99.90;;;;;;4978810;28;20049;-77
2022/04/05 01:26:59;;;;;;;6.50;2.60;;;7.50;99.90;;;;;;4993196;28;20049;-77
2022/04/05 01:29:28;;;;;;;6.30;2.30;;;7.50;99.90;;;;;;4968692;28;20532;-77
2022/04/05 01:32:06;;;;;;;8.02;3.13;;;7.50;99.90;;;;;;4990160;28;20049;-77
2022/04/05 01:34:34;;;;;;;6.22;2.30;;;7.50;99.90;;;;;;4994691;28;20049;-77
2022/04/05 01:37:04;;;;;;;5.57;2.50;;;7.50;99.90;;;;;;4992720;28;20076;-77
2022/04/05 01:39:32;;;;;;;5.97;2.38;;;7.50;99.90;;;;;;4983426;28;20045;-78
2022/04/05 01:42:13;;;;;;;6.53;2.30;;;7.50;99.90;;;;;;4994791;28;20440;-77
2022/04/05 01:44:40;;;;;;;7.43;2.30;;;7.40;99.90;;;;;;5001657;28;20589;-78
2022/04/05 01:47:11;;;;;;;6.15;2.42;;;7.40;99.90;;;;;;4998218;28;20049;-78
2022/04/05 01:49:39;;;;;;;6.60;2.30;;;7.40;99.90;;;;;;4997436;28;20050;-77
2022/04/05 01:52:06;;;;;;;6.15;2.25;;;7.40;99.90;;;;;;4994691;28;20124;-77
2022/04/05 01:54:33;;;;;;;6.97;2.15;;;7.40;99.90;;;;;;4981552;28;20103;-78
2022/04/05 01:56:59;;;;;;;5.47;1.98;;;7.40;99.90;;;;;;4977683;28;20053;-78
2022/04/05 01:59:28;;;;;;;5.78;2.13;;;7.40;99.90;;;;;;4975110;28;20129;-77
2022/04/05 02:01:55;;;;;;;6.53;1.98;;;7.40;99.90;;;;;;4995172;28;21332;-77
2022/04/05 02:04:21;;;;;;;8.07;2.08;;;7.30;99.90;;;;;;4975992;28;20439;-78
2022/04/05 02:06:48;;;;;;;8.07;2.08;;;7.40;99.90;;;;;;4972925;28;20058;-78
2022/04/05 02:09:15;;;;;;;5.05;1.85;;;7.30;99.90;;;;;;4977740;28;20044;-78
2022/04/05 02:11:43;;;;;;;6.75;2.05;;;7.30;99.90;;;;;;4972316;28;20408;-77
2022/04/05 02:14:09;;;;;;;6.00;1.70;;;7.30;99.90;;;;;;4989454;28;20053;-78
2022/04/05 02:16:36;;;;;;;6.60;2.30;;;7.30;99.90;;;;;;4992309;28;20136;-78
2022/04/05 02:19:03;;;;;;;5.90;1.73;;;7.30;99.90;;;;;;4996763;28;20132;-78
2022/04/05 02:21:30;;;;;;;4.97;1.55;;;7.30;99.90;;;;;;4994392;28;20051;-78
2022/04/05 02:23:55;;;;;;;5.90;1.77;;;7.30;99.90;;;;;;4978127;28;20037;-78
2022/04/05 02:26:21;;;;;;;7.03;1.80;;;7.20;99.90;;;;;;4990794;28;20128;-78
2022/04/05 02:28:48;;;;;;;5.13;1.45;;;7.20;99.90;;;;;;4973335;28;20208;-78
2022/04/05 02:31:16;;;;;;;7.00;1.88;;;7.20;99.90;;;;;;4979377;28;20057;-78
2022/04/05 02:33:43;;;;;;;5.20;1.60;;;7.20;99.90;;;;;;4997021;28;20084;-78
2022/04/05 02:36:08;;;;;;;5.93;1.92;;;7.20;99.90;;;;;;4992369;28;20866;-78
2022/04/05 02:38:36;;;;;;;5.13;1.63;;;7.20;99.90;;;;;;4993470;28;20045;-78
2022/04/05 02:41:05;;;;;;;5.55;1.50;;;7.20;99.90;;;;;;4972205;28;20075;-78
2022/04/05 02:43:32;;;;;;;7.40;1.50;;;7.10;99.90;;;;;;4995097;28;20293;-78
2022/04/05 02:45:58;;;;;;;3.25;1.35;;;7.10;99.90;;;;;;4993204;28;20042;-77
2022/04/05 02:48:25;;;;;;;5.45;1.40;;;7.20;99.90;;;;;;4975819;28;20049;-78
2022/04/05 02:50:52;;;;;;;5.50;1.65;;;7.10;99.90;;;;;;4994620;28;20131;-78
2022/04/05 02:53:18;;;;;;;5.38;1.40;;;7.20;99.90;;;;;;4995514;28;20041;-77
2022/04/05 02:55:45;;;;;;;6.47;1.92;;;7.20;99.90;;;;;;4977329;28;20075;-78
2022/04/05 02:58:11;;;;;;;7.80;1.50;;;7.20;99.90;;;;;;4979518;28;20060;-77
2022/04/05 03:00:38;;;;;;;2.75;1.48;;;7.20;99.90;;;;;;4993880;28;20060;-78
2022/04/05 03:03:04;;;;;;;5.28;1.70;;;7.10;99.90;;;;;;4993660;28;20115;-78
2022/04/05 03:05:30;;;;;;;5.25;1.50;;;7.20;99.90;;;;;;4996544;28;20163;-78
2022/04/05 03:07:56;;;;;;;5.78;1.88;;;7.20;99.90;;;;;;4978987;28;20365;-78
2022/04/05 03:10:21;;;;;;;4.95;1.73;;;7.10;99.90;;;;;;4991009;28;20057;-78
2022/04/05 03:12:47;;;;;;;4.63;1.70;;;7.10;99.90;;;;;;4974846;28;20045;-78
2022/04/05 03:15:13;;;;;;;6.00;1.73;;;7.20;99.90;;;;;;4979401;28;20120;-78
2022/04/05 03:17:44;;;;;;;5.38;1.75;;;7.10;99.90;;;;;;4979371;28;20045;-78
2022/04/05 03:20:14;;;;;;;8.05;2.10;;;7.20;99.90;;;;;;4997397;28;20053;-78
2022/04/05 03:22:42;;;;;;;8.05;2.20;;;7.20;99.90;;;;;;4997970;28;20128;-78
2022/04/05 03:25:09;;;;;;;6.18;2.00;;;7.20;99.90;;;;;;4992773;28;20044;-78
2022/04/05 03:27:39;;;;;;;7.68;2.00;;;7.20;99.90;;;;;;4990236;28;20651;-78
2022/04/05 03:30:05;;;;;;;9.68;2.83;;;7.20;99.90;;;;;;4967756;28;20049;-78
2022/04/05 03:32:32;;;;;;;5.82;2.40;;;7.20;99.90;;;;;;4976572;28;20045;-78
2022/04/05 03:34:58;;;;;;;8.98;2.75;;;7.20;99.90;;;;;;4973598;28;20569;-78
2022/04/05 03:37:24;;;;;;;8.10;2.63;;;7.20;99.90;;;;;;4975887;28;20044;-78
2022/04/05 03:39:50;;;;;;;7.95;3.00;;;7.30;99.90;;;;;;4979033;28;20102;-78
2022/04/05 03:42:16;;;;;;;7.15;2.75;;;7.20;99.90;;;;;;4988177;28;20607;-78
2022/04/05 03:44:42;;;;;;;7.70;2.80;;;7.30;99.90;;;;;;4988562;28;20041;-78
2022/04/05 03:47:07;;;;;;;8.52;2.95;;;7.30;99.90;;;;;;4988316;28;20076;-78
2022/04/05 03:49:33;;;;;;;8.65;2.85;;;7.30;99.90;;;;;;4994849;28;20045;-78
2022/04/05 03:51:59;;;;;;;8.80;2.85;;;7.30;99.90;;;;;;4975727;28;21692;-78
2022/04/05 03:54:25;;;;;;;9.07;3.40;;;7.30;99.90;;;;;;5001514;28;20049;-78
2022/04/05 03:56:51;;;;;;;7.50;2.97;;;7.30;99.90;;;;;;4999386;28;20570;-78
2022/04/05 03:59:18;;;;;;;9.65;3.33;;;7.30;99.90;;;;;;4990432;28;20046;-78
2022/04/05 04:01:44;;;;;;;7.53;3.00;;;7.30;99.90;;;;;;4993532;28;20124;-78
2022/04/05 04:04:09;;;;;;;8.35;3.00;;;7.30;99.90;;;;;;4995542;28;20861;-78
2022/04/05 04:06:35;;;;;;;7.22;3.10;;;7.30;99.90;;;;;;4976005;28;20045;-78
2022/04/05 04:09:01;;;;;;;9.38;3.05;;;7.30;99.90;;;;;;4991244;28;20042;-78
2022/04/05 04:11:27;;;;;;;9.75;3.20;;;7.30;99.90;;;;;;4975413;28;20054;-78
2022/04/05 04:13:53;;;;;;;7.53;3.17;;;7.30;99.90;;;;;;4972645;28;20400;-78
2022/04/05 04:16:19;;;;;;;9.27;3.15;;;7.40;99.90;;;;;;4972414;28;20053;-78
2022/04/05 04:18:44;;;;;;;8.85;3.22;;;7.40;99.90;;;;;;4991759;28;20076;-78
2022/04/05 04:21:10;;;;;;;9.00;3.40;;;7.40;99.90;;;;;;4971798;28;20068;-78
2022/04/05 04:23:36;;;;;;;8.63;3.75;;;7.30;99.90;;;;;;4987976;28;20061;-77
2022/04/05 04:26:02;;;;;;;9.73;3.28;;;7.40;99.90;;;;;;4982910;28;20049;-78
2022/04/05 04:28:28;;;;;;;8.40;3.42;;;7.30;99.90;;;;;;4991636;28;20088;-77
2022/04/05 04:30:54;;;;;;;9.57;4.30;;;7.40;99.90;;;;;;4974387;28;20042;-78
2022/04/05 04:33:20;;;;;;;11.25;3.85;;;7.30;99.90;;;;;;4987563;28;20056;-78
2022/04/05 04:35:46;;;;;;;11.98;3.97;;;7.30;99.90;;;;;;4995978;28;20467;-78
2022/04/05 04:38:13;;;;;;;11.32;3.80;;;7.30;99.90;;;;;;4995656;28;20041;-78
2022/04/05 04:40:39;;;;;;;11.13;4.25;;;7.30;99.90;;;;;;4992530;28;20048;-78
2022/04/05 04:43:05;;;;;;;8.25;3.63;;;7.30;99.90;;;;;;4990957;28;20045;-78
2022/04/05 04:45:31;;;;;;;11.50;4.28;;;7.30;99.90;;;;;;4976950;28;20391;-78
2022/04/05 04:47:57;;;;;;;9.65;4.07;;;7.30;99.90;;;;;;4996896;28;20560;-77
2022/04/05 04:50:24;;;;;;;9.70;4.10;;;7.30;99.90;;;;;;4985113;28;20045;-77
2022/04/05 04:52:49;;;;;;;9.65;4.43;;;7.30;99.90;;;;;;5001268;28;20046;-78
2022/04/05 04:55:15;;;;;;;11.93;4.72;;;7.30;99.90;;;;;;4998867;28;20083;-77
2022/04/05 04:57:41;;;;;;;12.52;4.45;;;7.30;99.90;;;;;;5002101;28;20074;-77
2022/04/05 05:00:08;;;;;;;11.10;4.57;;;7.30;99.90;;;;;;4998337;28;20087;-78
2022/04/05 05:02:47;;;;;;;13.85;4.85;;;7.30;99.90;;;;;;4997831;28;20053;-78
2022/04/05 05:05:19;;;;;;;10.70;5.05;;;7.30;99.90;;;;;;4973078;28;20060;-77
2022/04/05 05:07:49;;;;;;;14.35;5.68;;;7.20;99.90;;;;;;4978932;28;20107;-78
2022/04/05 05:10:16;;;;;;;11.23;5.60;;;7.20;99.90;;;;;;4997465;28;20052;-78
2022/04/05 05:12:43;;;;;;;12.05;5.28;;;7.30;99.90;;;;;;4975160;28;20091;-77
2022/04/05 05:15:10;;;;;;;11.20;5.65;;;7.30;99.90;;;;;;4996886;28;20582;-78
2022/04/05 05:17:36;;;;;;;10.73;5.35;;;7.30;99.90;;;;;;4990700;28;20128;-78
2022/04/05 05:20:06;;;;;;;13.18;5.30;;;7.30;99.90;;;;;;4962826;28;20061;-79
2022/04/05 05:22:32;;;;;;;11.80;5.20;;;7.30;99.90;;;;;;4972300;28;21236;-78
2022/04/05 05:24:58;;;;;;;11.15;5.47;;;7.30;99.90;;;;;;4977286;28;20057;-78
2022/04/05 05:27:24;;;;;;;11.95;5.40;;;7.30;99.90;;;;;;4973403;28;20867;-79
2022/04/05 05:29:50;;;;;;;12.02;5.20;;;7.30;99.90;;;;;;4971715;28;20734;-79
2022/04/05 05:32:16;;;;;;;13.73;5.30;;;7.30;99.90;;;;;;4953242;28;20046;-79
2022/04/05 05:34:41;;;;;;;12.07;5.45;;;7.30;99.90;;;;;;4975285;28;20045;-79
2022/04/05 05:37:08;;;;;;;11.65;5.78;;;7.30;99.90;;;;;;4970414;28;20050;-78
2022/04/05 05:39:36;;;;;;;12.50;5.43;;;7.40;99.90;;;;;;4971738;28;20551;-78
2022/04/05 05:42:07;;;;;;;11.98;5.97;;;7.40;99.90;;;;;;4977109;28;20239;-78
2022/04/05 05:44:33;;;;;;;11.13;5.75;;;7.40;99.90;;;;;;4971460;28;20137;-78
2022/04/05 05:47:00;;;;;;;13.45;6.43;;;7.40;99.90;;;;;;4972195;28;20050;-78
2022/04/05 05:49:26;;;;;;;12.38;5.95;;;7.50;99.90;;;;;;4973198;28;20152;-78
2022/04/05 05:51:51;;;;;;;11.20;5.82;;;7.40;99.90;;;;;;4973486;28;20058;-78
2022/04/05 05:54:18;;;;;;;10.80;6.35;;;7.50;99.90;;;;;;4975270;28;20874;-78
2022/04/05 05:56:44;;;;;;;12.77;6.20;;;7.60;99.90;;;;;;4976016;28;20048;-78
2022/04/05 05:59:10;;;;;;;11.88;6.18;;;7.60;99.90;;;;;;4975701;28;20402;-77
2022/04/05 06:01:36;;;;;;;11.73;5.97;;;7.60;99.90;;;;;;4978450;28;20053;-78
2022/04/05 06:04:02;;;;;;;16.65;6.05;;;7.60;99.90;;;;;;4980186;28;20112;-78
2022/04/05 06:06:31;;;;;;;11.63;6.30;;;7.70;99.90;;;;;;4976279;28;20939;-78
2022/04/05 06:08:58;;;;;;;13.68;6.10;;;7.70;99.90;;;;;;4972415;28;20857;-78
2022/04/05 06:11:25;;;;;;;12.35;6.80;;;7.70;99.90;;;;;;4977545;28;20041;-78
2022/04/05 06:13:51;;;;;;;10.18;6.10;;;7.70;99.90;;;;;;4973822;28;20111;-78
2022/04/05 06:16:18;;;;;;;11.80;5.85;;;7.80;99.90;;;;;;4975310;28;20056;-78
2022/04/05 06:18:47;;;;;;;10.82;6.03;;;7.80;99.90;;;;;;4976655;28;20058;-78
2022/04/05 06:21:14;;;;;;;13.43;5.97;;;7.80;99.90;;;;;;4992928;28;20056;-78
2022/04/05 06:23:40;;;;;;;13.77;5.70;;;7.90;99.90;;;;;;4996092;28;20041;-79
2022/04/05 06:26:06;;;;;;;9.32;5.13;;;7.90;99.90;;;;;;4979361;28;20059;-78
2022/04/05 06:28:33;;;;;;;10.35;5.15;;;7.90;99.90;;;;;;4978278;28;20787;-78
2022/04/05 06:30:59;;;;;;;12.18;4.82;;;7.90;99.90;;;;;;4994879;28;20045;-77
2022/04/05 06:33:25;;;;;;;10.10;5.70;;;7.90;99.90;;;;;;4979874;28;20574;-78
2022/04/05 06:35:54;;;;;;;10.50;4.88;;;7.90;99.90;;;;;;4999004;28;20041;-78
2022/04/05 06:38:20;;;;;;;10.05;4.57;;;7.90;99.90;;;;;;4996457;28;20046;-78
2022/04/05 06:40:47;;;;;;;10.48;4.05;;;7.90;99.90;;;;;;4978603;28;20553;-78
2022/04/05 06:43:14;;;;;;;11.80;4.55;;;8.00;99.90;;;;;;4978291;28;20212;-78
2022/04/05 06:45:41;;;;;;;10.27;4.50;;;8.00;99.90;;;;;;4997233;28;20045;-78
2022/04/05 06:48:09;;;;;;;12.27;4.30;;;8.00;99.90;;;;;;4994619;28;20057;-78
2022/04/05 06:50:35;;;;;;;7.95;3.35;;;8.00;99.90;;;;;;4977589;28;20084;-78
2022/04/05 06:53:03;;;;;;;10.05;3.90;;;8.00;99.90;;;;;;4977188;28;20526;-78
2022/04/05 06:55:29;;;;;;;10.43;3.83;;;8.10;99.90;;;;;;4976784;28;20049;-78
2022/04/05 06:57:56;;;;;;;9.90;3.50;;;8.20;99.90;;;;;;5001788;28;20170;-78
2022/04/05 07:00:23;;;;;;;7.63;3.30;;;8.30;99.90;;;;;;4983621;28;20103;-78
2022/04/05 07:02:49;;;;;;;9.48;3.60;;;8.40;99.90;;;;;;4982868;28;20222;-78
2022/04/05 07:05:16;;;;;;;7.65;3.20;;;8.40;99.90;;;;;;4976966;28;20407;-78
2022/04/05 07:07:42;;;;;;;10.57;3.25;;;8.50;99.90;;;;;;4997135;28;20048;-79
2022/04/05 07:10:10;;;;;;;8.35;2.53;;;8.50;99.90;;;;;;4993260;28;20041;-78
2022/04/05 07:12:37;;;;;;;8.43;2.72;;;8.50;99.90;;;;;;4982395;28;20056;-78
2022/04/05 07:15:04;;;;;;;8.38;2.53;;;8.50;99.90;;;;;;4995948;28;20069;-78
2022/04/05 07:17:30;;;;;;;7.50;2.20;;;8.60;99.90;;;;;;4995383;28;20114;-79
2022/04/05 07:19:56;;;;;;;6.70;2.40;;;8.50;99.90;;;;;;4993227;28;20906;-78
2022/04/05 07:22:22;;;;;;;6.65;2.08;;;8.50;99.90;;;;;;4979007;28;21172;-78
2022/04/05 07:24:48;;;;;;;7.95;2.38;;;8.50;99.90;;;;;;5006315;28;20034;-78
2022/04/05 07:27:14;;;;;;;5.93;1.80;;;8.50;99.90;;;;;;4993025;28;20048;-78
2022/04/05 07:29:40;;;;;;;6.32;1.95;;;8.50;99.90;;;;;;4982924;28;20819;-78
2022/04/05 07:32:07;;;;;;;5.82;1.83;;;8.50;99.90;;;;;;4992232;28;20944;-78
2022/04/05 07:34:33;;;;;;;5.68;1.70;;;8.60;99.90;;;;;;4975354;28;20388;-77
2022/04/05 07:37:00;;;;;;;7.13;1.60;;;8.60;99.90;;;;;;4994996;28;20048;-78
2022/04/05 07:39:26;;;;;;;5.25;1.50;;;8.60;99.90;;;;;;4993420;28;20041;-78
2022/04/05 07:41:52;;;;;;;6.47;1.75;;;8.70;99.90;;;;;;4981125;28;20163;-78
2022/04/05 07:44:18;;;;;;;5.35;1.40;;;8.70;99.90;;;;;;4979194;28;20059;-77
2022/04/05 07:46:45;;;;;;;4.53;1.20;;;8.60;99.90;;;;;;4981050;28;20467;-77
2022/04/05 07:49:11;;;;;;;4.38;1.40;;;8.60;99.90;;;;;;4992800;28;20045;-77
2022/04/05 07:51:37;;;;;;;4.13;1.40;;;8.60;99.90;;;;;;4998969;28;20095;-78
2022/04/05 07:54:05;;;;;;;4.93;1.30;;;8.70;99.90;;;;;;4995572;28;20037;-78
2022/04/05 07:56:31;;;;;;;4.25;1.30;;;8.80;99.90;;;;;;5000722;28;20056;-78
2022/04/05 07:58:57;;;;;;;3.95;1.60;;;8.90;99.90;;;;;;4994683;28;20053;-77
2022/04/05 08:01:24;;;;;;;4.47;1.15;;;8.90;99.90;;;;;;4973962;28;20056;-78
2022/04/05 08:03:51;;;;;;;2.53;1.10;;;9.00;99.90;;;;;;4990548;28;20123;-77
2022/04/05 08:06:17;;;;;;;4.80;1.30;;;9.00;99.90;;;;;;4990784;28;20037;-78
2022/04/05 08:08:43;;;;;;;2.60;0.90;;;9.10;99.90;;;;;;4959464;28;20696;-78
2022/04/05 08:11:09;;;;;;;4.57;1.10;;;9.10;99.90;;;;;;4986897;28;20044;-77
2022/04/05 08:13:34;;;;;;;5.05;0.98;;;9.20;99.90;;;;;;5004597;28;20057;-78
2022/04/05 08:16:00;;;;;;;3.30;1.00;;;9.20;99.90;;;;;;5004501;28;20045;-78
2022/04/05 08:18:27;;;;;;;2.90;1.00;;;9.20;99.90;;;;;;5003312;28;20288;-78
2022/04/05 08:20:53;;;;;;;3.55;1.17;;;9.20;99.90;;;;;;5006511;28;20141;-78
2022/04/05 08:23:19;;;;;;;3.25;1.00;;;9.30;99.90;;;;;;5005562;28;20300;-79
2022/04/05 08:25:45;;;;;;;4.43;1.08;;;9.30;99.90;;;;;;5007069;28;20406;-79
2022/04/05 08:28:11;;;;;;;5.30;1.00;;;9.30;99.90;;;;;;5004219;28;20045;-79
2022/04/05 08:30:37;;;;;;;1.80;1.05;;;9.30;99.90;;;;;;4985801;28;20045;-79
2022/04/05 08:33:03;;;;;;;3.92;1.40;;;9.40;99.90;;;;;;5001720;28;20058;-79
2022/04/05 08:35:29;;;;;;;4.15;1.20;;;9.40;99.90;;;;;;5003299;28;21242;-79
2022/04/05 08:37:55;;;;;;;2.40;1.20;;;9.40;99.90;;;;;;5000407;28;20083;-78
2022/04/05 08:40:23;;;;;;;2.22;1.00;;;9.40;99.90;;;;;;4997781;28;20676;-78
2022/04/05 08:42:52;;;;;;;3.45;1.10;;;9.40;99.90;;;;;;4999991;28;20052;-78
2022/04/05 08:45:20;;;;;;;3.25;1.10;;;9.40;99.90;;;;;;5004783;28;20255;-78
2022/04/05 08:47:54;;;;;;;5.60;1.35;;;9.50;99.90;;;;;;4986817;28;20045;-79
2022/04/05 08:50:23;;;;;;;5.25;1.20;;;9.50;99.90;;;;;;4998683;28;20052;-79
2022/04/05 08:52:50;;;;;;;45.28;2.88;;;9.60;99.90;;;;;;4999346;28;20055;-78
2022/04/05 08:55:17;;;;;;;6.30;1.20;;;9.60;99.90;;;;;;5004498;28;20180;-79
2022/04/05 08:57:43;;;;;;;3.97;1.00;;;9.60;99.90;;;;;;4989077;28;20059;-78
2022/04/05 09:00:12;;;;;;;6.53;1.10;;;9.60;99.90;;;;;;4995933;28;20061;-79
2022/04/05 09:02:38;;;;;;;3.40;1.20;;;9.60;99.90;;;;;;5008378;28;20044;-78
2022/04/05 09:05:04;;;;;;;3.78;1.40;;;9.90;99.90;;;;;;5003989;28;20045;-79
2022/04/05 09:07:32;;;;;;;5.40;1.98;;;9.90;99.90;;;;;;4989386;28;20076;-79
2022/04/05 09:10:14;;;;;;;3.60;1.80;;;9.80;99.90;;;;;;5001298;28;20052;-78
2022/04/05 09:12:42;;;;;;;3.05;2.05;;;9.80;99.90;;;;;;4997341;28;20134;-79
2022/04/05 09:15:18;;;;;;;3.75;2.30;;;9.90;99.90;;;;;;4977293;28;20484;-78
2022/04/05 09:17:46;;;;;;;4.30;1.80;;;10.00;99.90;;;;;;4967115;28;20064;-79
2022/04/05 09:20:15;;;;;;;1.92;1.38;;;10.00;99.90;;;;;;4987749;28;20053;-79
2022/04/05 09:22:41;;;;;;;2.60;1.40;;;9.90;99.90;;;;;;5005661;28;20041;-79
2022/04/05 09:25:10;;;;;;;4.05;1.35;;;10.00;99.90;;;;;;5008088;28;20738;-79
2022/04/05 09:27:57;;;;;;;7.38;1.42;;;10.10;99.90;;;;;;4983675;28;20041;-79
2022/04/05 09:30:29;;;;;;;2.38;1.33;;;10.00;99.90;;;;;;4990675;28;20121;-79
2022/04/05 09:32:56;;;;;;;3.78;1.60;;;10.00;99.90;;;;;;4967150;28;20045;-79
2022/04/05 09:35:39;;;;;;;3.15;1.65;;;10.00;99.90;;;;;;4988453;28;20053;-79
2022/04/05 09:38:15;;;;;;;3.20;1.90;;;10.10;99.90;;;;;;4985710;28;20048;-79
2022/04/05 09:40:42;;;;;;;4.18;1.80;;;10.00;99.90;;;;;;4971187;28;21042;-79
2022/04/05 09:43:12;;;;;;;4.03;2.20;;;10.20;99.90;;;;;;4990496;28;20047;-79
2022/04/05 09:45:58;;;;;;;5.03;2.28;;;10.10;99.90;;;;;;4956023;28;20089;-79
2022/04/05 09:48:27;;;;;;;4.32;2.20;;;10.10;99.90;;;;;;4976178;28;20041;-79
2022/04/05 09:50:59;;;;;;;4.03;2.42;;;10.10;99.90;;;;;;4989143;28;20510;-79
2022/04/05 09:54:07;;;;;;;5.25;2.72;;;10.10;99.90;;;;;;5000454;28;20152;-79
2022/04/05 09:56:38;;;;;;;4.38;3.05;;;10.10;99.90;;;;;;4948244;28;23554;-79
2022/04/05 09:59:19;;;;;;;5.00;3.20;;;10.00;99.90;;;;;;4977144;28;20053;-79
2022/04/05 10:01:47;;;;;;;9.60;3.67;;;10.10;99.90;;;;;;4996899;28;20103;-79
2022/04/05 10:04:15;;;;;;;7.00;3.58;;;10.10;99.90;;;;;;4976870;28;20180;-80
2022/04/05 10:06:46;;;;;;;5.57;3.20;;;10.00;99.90;;;;;;4981442;28;20412;-79
2022/04/05 10:09:13;;;;;;;5.38;3.25;;;9.90;99.90;;;;;;4995844;28;20049;-79
2022/04/05 10:11:41;;;;;;;5.78;3.60;;;10.00;99.90;;;;;;4996019;28;20041;-79
2022/04/05 10:14:09;;;;;;;6.10;3.88;;;10.20;99.90;;;;;;4981857;28;20475;-79
2022/04/05 10:16:36;;;;;;;6.60;4.22;;;10.30;99.90;;;;;;4981040;28;20053;-78
2022/04/05 10:19:04;;;;;;;7.50;4.60;;;10.20;99.90;;;;;;4996398;28;20061;-78
2022/04/05 10:21:34;;;;;;;7.22;4.40;;;10.10;99.90;;;;;;5002214;28;20301;-78
2022/04/05 10:24:01;;;;;;;8.20;4.90;;;10.00;99.90;;;;;;4996920;28;20508;-78
2022/04/05 10:26:32;;;;;;;7.80;5.20;;;10.00;99.90;;;;;;4997239;28;20587;-78
2022/04/05 10:29:01;;;;;;;8.55;5.68;;;10.10;99.90;;;;;;5000960;28;20049;-79
2022/04/05 10:31:58;;;;;;;10.20;6.90;;;10.20;99.90;;;;;;4993313;28;20060;-78
2022/04/05 10:34:44;;;;;;;15.23;7.00;;;10.20;99.90;;;;;;4995391;28;20037;-77
2022/04/05 10:37:16;;;;;;;10.52;7.40;;;10.40;99.90;;;;;;4962120;28;20060;-79
2022/04/05 10:39:44;;;;;;;10.88;8.20;;;10.70;99.90;;;;;;5001003;28;20063;-77
2022/04/05 10:42:10;;;;;;;12.07;9.20;;;11.00;99.90;;;;;;4976528;28;20049;-78
2022/04/05 10:44:37;;;;;;;10.40;8.30;;;11.10;99.90;;;;;;5000158;28;20045;-77
2022/04/05 10:47:06;;;;;;;14.65;9.75;;;10.90;99.90;;;;;;4983819;28;20753;-78
2022/04/05 10:49:43;;;;;;;12.10;9.20;;;10.90;99.90;;;;;;4975142;28;20051;-78
2022/04/05 10:52:21;;;;;;;12.45;9.80;;;10.90;99.90;;;;;;4998520;28;20068;-77
2022/04/05 10:54:50;;;;;;;11.73;9.45;;;10.90;99.90;;;;;;4980311;28;20092;-77
2022/04/05 10:57:17;;;;;;;13.85;10.23;;;11.00;99.90;;;;;;5011401;28;20136;-78
2022/04/05 10:59:48;;;;;;;12.25;9.63;;;11.00;99.90;;;;;;5007656;28;20045;-78
2022/04/05 11:02:41;;;;;;;13.35;11.25;;;11.10;99.90;;;;;;4997859;28;20041;-78
2022/04/05 11:05:18;;;;;;;13.27;10.45;;;11.40;99.90;;;;;;5001622;28;20909;-78
2022/04/05 11:08:00;;;;;;;12.57;9.52;;;11.60;99.90;;;;;;4999954;28;20115;-78
2022/04/05 11:10:41;;;;;;;11.43;8.80;;;11.60;99.90;;;;;;4991168;28;20045;-78
2022/04/05 11:13:15;;;;;;;12.30;9.60;;;11.60;99.90;;;;;;4986224;28;20670;-78
2022/04/05 11:15:46;;;;;;;10.38;8.48;;;11.70;99.90;;;;;;5006070;28;20048;-77
2022/04/05 11:18:22;;;;;;;9.77;8.05;;;11.80;99.90;;;;;;5006832;28;20867;-78
2022/04/05 11:20:51;;;;;;;10.00;7.25;;;11.70;99.90;;;;;;5005399;28;20575;-77
2022/04/05 11:23:19;;;;;;;8.73;7.07;;;11.70;99.90;;;;;;5005828;28;20774;-77
2022/04/05 11:25:46;;;;;;;9.52;6.97;;;11.80;99.90;;;;;;4990989;28;20056;-78
2022/04/05 11:28:21;;;;;;;9.23;6.60;;;11.70;99.90;;;;;;4992209;28;20053;-78
2022/04/05 11:30:55;;;;;;;9.10;6.45;;;11.70;99.90;;;;;;4983706;28;20527;-78
2022/04/05 11:33:32;;;;;;;9.02;5.90;;;11.60;99.90;;;;;;5000664;28;20153;-78
2022/04/05 11:36:02;;;;;;;9.75;6.00;;;11.60;99.90;;;;;;4990265;28;20134;-78
2022/04/05 11:38:35;;;;;;;8.85;5.82;;;11.50;99.90;;;;;;5007598;28;20084;-78
2022/04/05 11:41:08;;;;;;;8.37;5.80;;;11.50;99.90;;;;;;5002664;28;20463;-78
2022/04/05 11:43:35;;;;;;;7.78;5.38;;;11.50;99.90;;;;;;4985652;28;20052;-76
2022/04/05 11:46:18;;;;;;;9.43;5.78;;;11.70;99.90;;;;;;4991167;28;20059;-78
2022/04/05 11:48:46;;;;;;;8.75;5.50;;;11.90;99.90;;;;;;5005162;28;20520;-78
2022/04/05 11:51:18;;;;;;;8.50;5.82;;;12.20;99.90;;;;;;5002963;28;20915;-77
2022/04/05 11:53:46;;;;;;;8.20;5.55;;;12.50;99.90;;;;;;4984826;28;20056;-78
2022/04/05 11:56:21;;;;;;;8.52;5.40;;;12.40;99.90;;;;;;4969062;28;20111;-79
2022/04/05 11:58:52;;;;;;;9.30;5.20;;;12.40;99.90;;;;;;4995574;28;20057;-77
2022/04/05 12:01:37;;;;;;;8.57;5.60;;;12.30;99.90;;;;;;5004305;28;20045;-76
2022/04/05 12:04:11;;;;;;;9.57;5.13;;;12.30;99.90;;;;;;5005613;28;20648;-77
2022/04/05 12:06:39;;;;;;;8.32;4.93;;;12.30;99.90;;;;;;4984361;28;20045;-78
2022/04/05 12:09:10;;;;;;;8.23;4.85;;;12.10;99.90;;;;;;5002440;28;20052;-77
2022/04/05 12:11:39;;;;;;;10.20;5.35;;;12.10;99.90;;;;;;5008160;28;20049;-76
2022/04/05 12:14:11;;;;;;;10.95;5.30;;;12.20;99.90;;;;;;5005512;28;20045;-76
2022/04/05 12:17:03;;;;;;;9.85;4.63;;;12.30;99.90;;;;;;4999992;28;20045;-77
2022/04/05 12:19:37;;;;;;;7.85;4.30;;;12.30;99.90;;;;;;5006144;28;20077;-77
2022/04/05 12:22:05;;;;;;;9.65;4.90;;;12.10;99.90;;;;;;4997940;28;20041;-78
2022/04/05 12:24:33;;;;;;;9.02;4.75;;;12.10;99.90;;;;;;4968822;28;20494;-78
2022/04/05 12:27:02;;;;;;;10.88;5.22;;;12.20;99.90;;;;;;4983828;28;20045;-78
2022/04/05 12:29:30;;;;;;;8.57;5.05;;;12.20;99.90;;;;;;5005578;28;20052;-77
2022/04/05 12:32:04;;;;;;;9.95;4.90;;;12.40;99.90;;;;;;4987034;28;20411;-76
2022/04/05 12:34:30;;;;;;;6.60;4.43;;;12.30;99.90;;;;;;5003326;28;20042;-77
2022/04/05 12:37:02;;;;;;;11.07;4.93;;;12.40;99.90;;;;;;4985832;28;20057;-77
2022/04/05 12:39:30;;;;;;;11.15;5.60;;;12.40;99.90;;;;;;5002486;28;20053;-76
2022/04/05 12:42:07;;;;;;;8.10;4.90;;;12.30;99.90;;;;;;4973015;28;20147;-77
2022/04/05 12:44:45;;;;;;;9.65;5.72;;;12.30;99.90;;;;;;4979197;28;20076;-77
2022/04/05 12:47:16;;;;;;;9.77;5.85;;;12.20;99.90;;;;;;4998991;28;20151;-78
2022/04/05 12:49:44;;;;;;;12.30;6.18;;;12.30;99.90;;;;;;5000426;28;20056;-77
2022/04/05 12:52:22;;;;;;;9.68;5.90;;;12.30;99.90;;;;;;4990620;28;20048;-75
2022/04/05 12:54:51;;;;;;;8.68;4.93;;;12.20;99.90;;;;;;4979880;28;20448;-77
2022/04/05 12:57:32;;;;;;;10.23;4.65;;;12.00;99.90;;;;;;4980788;28;20112;-75